sensor_id;sensor_type;location;lat;lon;timestamp;temperature;humidity
63325;SHT31;49451;52.390;13.028;2022-12-07T04:02:44;2.19;95.39
63325;SHT31;49451;52.390;13.028;2022-12-07T04:05:11;2.24;95.36
63325;SHT31;49451;52.390;13.028;2022-12-07T04:07:37;2.38;95.16
63325;SHT31;49451;52.390;13.028;2022-12-07T04:10:03;2.30;95.56
63325;SHT31;49451;52.390;13.028;2022-12-07T04:12:29;2.47;95.41
63325;SHT31;49451;52.390;13.028;2022-12-07T04:14:54;2.33;95.29
63325;SHT31;49451;52.390;13.028;2022-12-07T04:17:19;2.48;95.36
63325;SHT31;49451;52.390;13.028;2022-12-07T04:19:45;2.50;95.30
63325;SHT31;49451;52.390;13.028;2022-12-07T04:22:10;2.45;95.61
63325;SHT31;49451;52.390;13.028;2022-12-07T04:24:36;2.54;95.71
63325;SHT31;49451;52.390;13.028;2022-12-07T04:27:01;2.58;95.52
63325;SHT31;49451;52.390;13.028;2022-12-07T04:29:27;2.54;95.58
63325;SHT31;49451;52.390;13.028;2022-12-07T04:31:53;2.60;95.48
63325;SHT31;49451;52.390;13.028;2022-12-07T04:34:19;2.58;95.71
63325;SHT31;49451;52.390;13.028;2022-12-07T04:36:45;2.57;95.31
63325;SHT31;49451;52.390;13.028;2022-12-07T04:39:23;2.62;95.58
63325;SHT31;49451;52.390;13.028;2022-12-07T04:41:49;2.79;95.16
63325;SHT31;49451;52.390;13.028;2022-12-07T04:44:15;2.82;95.27
63325;SHT31;49451;52.390;13.028;2022-12-07T04:46:41;2.74;95.29
63325;SHT31;49451;52.390;13.028;2022-12-07T04:49:07;2.75;95.07
63325;SHT31;49451;52.390;13.028;2022-12-07T04:51:32;2.47;96.29
63325;SHT31;49451;52.390;13.028;2022-12-07T04:53:58;2.61;96.20
63325;SHT31;49451;52.390;13.028;2022-12-07T04:56:24;2.75;95.78
63325;SHT31;49451;52.390;13.028;2022-12-07T04:58:51;2.72;95.82
63325;SHT31;49451;52.390;13.028;2022-12-07T05:01:17;2.68;95.63
63325;SHT31;49451;52.390;13.028;2022-12-07T05:03:43;2.78;95.72
63325;SHT31;49451;52.390;13.028;2022-12-07T05:06:09;2.71;95.46
63325;SHT31;49451;52.390;13.028;2022-12-07T05:08:35;2.79;96.06
63325;SHT31;49451;52.390;13.028;2022-12-07T05:11:02;2.96;95.36
63325;SHT31;49451;52.390;13.028;2022-12-07T05:13:28;2.99;95.44
63325;SHT31;49451;52.390;13.028;2022-12-07T05:15:54;2.88;96.31
63325;SHT31;49451;52.390;13.028;2022-12-07T05:18:22;3.07;97.41
63325;SHT31;49451;52.390;13.028;2022-12-07T05:20:48;2.99;95.70
63325;SHT31;49451;52.390;13.028;2022-12-07T05:23:14;2.92;95.64
63325;SHT31;49451;52.390;13.028;2022-12-07T05:25:39;2.98;96.00
63325;SHT31;49451;52.390;13.028;2022-12-07T05:28:05;3.07;95.75
63325;SHT31;49451;52.390;13.028;2022-12-07T05:30:31;3.10;95.65
63325;SHT31;49451;52.390;13.028;2022-12-07T05:32:57;2.88;96.22
63325;SHT31;49451;52.390;13.028;2022-12-07T05:35:23;2.95;96.63
63325;SHT31;49451;52.390;13.028;2022-12-07T05:37:48;2.93;96.97
63325;SHT31;49451;52.390;13.028;2022-12-07T05:40:14;3.10;96.77
63325;SHT31;49451;52.390;13.028;2022-12-07T05:42:40;3.10;96.50
63325;SHT31;49451;52.390;13.028;2022-12-07T05:45:06;3.20;96.14
63325;SHT31;49451;52.390;13.028;2022-12-07T05:47:31;3.13;96.34
63325;SHT31;49451;52.390;13.028;2022-12-07T05:49:57;3.22;96.30
63325;SHT31;49451;52.390;13.028;2022-12-07T05:52:23;3.17;96.34
63325;SHT31;49451;52.390;13.028;2022-12-07T05:54:48;3.24;96.29
63325;SHT31;49451;52.390;13.028;2022-12-07T05:57:14;3.24;96.35
63325;SHT31;49451;52.390;13.028;2022-12-07T05:59:39;3.31;96.35
63325;SHT31;49451;52.390;13.028;2022-12-07T06:02:08;3.38;96.13
63325;SHT31;49451;52.390;13.028;2022-12-07T06:04:37;3.53;95.78
63325;SHT31;49451;52.390;13.028;2022-12-07T06:07:03;3.50;95.59
63325;SHT31;49451;52.390;13.028;2022-12-07T06:09:29;3.53;95.82
63325;SHT31;49451;52.390;13.028;2022-12-07T06:11:55;3.61;95.54
63325;SHT31;49451;52.390;13.028;2022-12-07T06:14:39;3.55;95.56
63325;SHT31;49451;52.390;13.028;2022-12-07T06:17:05;3.60;96.10
63325;SHT31;49451;52.390;13.028;2022-12-07T06:19:31;3.57;95.90
63325;SHT31;49451;52.390;13.028;2022-12-07T06:21:56;3.72;95.47
63325;SHT31;49451;52.390;13.028;2022-12-07T06:24:22;3.62;95.96
63325;SHT31;49451;52.390;13.028;2022-12-07T06:26:48;3.72;95.63
63325;SHT31;49451;52.390;13.028;2022-12-07T06:29:14;3.67;96.08
63325;SHT31;49451;52.390;13.028;2022-12-07T06:31:40;3.75;95.78
63325;SHT31;49451;52.390;13.028;2022-12-07T06:34:08;3.83;95.31
63325;SHT31;49451;52.390;13.028;2022-12-07T06:36:34;3.81;95.46
63325;SHT31;49451;52.390;13.028;2022-12-07T06:38:59;3.85;95.21
63325;SHT31;49451;52.390;13.028;2022-12-07T06:41:25;3.86;95.04
63325;SHT31;49451;52.390;13.028;2022-12-07T06:43:50;3.85;95.20
63325;SHT31;49451;52.390;13.028;2022-12-07T06:46:16;3.88;95.27
63325;SHT31;49451;52.390;13.028;2022-12-07T06:48:42;3.86;95.30
63325;SHT31;49451;52.390;13.028;2022-12-07T06:51:08;3.86;95.07
63325;SHT31;49451;52.390;13.028;2022-12-07T06:53:34;3.86;95.55
63325;SHT31;49451;52.390;13.028;2022-12-07T06:55:59;3.95;95.36
63325;SHT31;49451;52.390;13.028;2022-12-07T06:58:25;4.02;94.74
63325;SHT31;49451;52.390;13.028;2022-12-07T07:00:50;3.96;94.86
63325;SHT31;49451;52.390;13.028;2022-12-07T07:03:16;3.88;95.05
63325;SHT31;49451;52.390;13.028;2022-12-07T07:05:42;3.91;95.13
63325;SHT31;49451;52.390;13.028;2022-12-07T07:08:08;3.93;95.01
63325;SHT31;49451;52.390;13.028;2022-12-07T07:10:34;4.00;94.19
63325;SHT31;49451;52.390;13.028;2022-12-07T07:13:00;4.00;94.42
63325;SHT31;49451;52.390;13.028;2022-12-07T07:15:25;4.02;94.61
63325;SHT31;49451;52.390;13.028;2022-12-07T07:17:51;4.02;94.29
63325;SHT31;49451;52.390;13.028;2022-12-07T07:20:16;3.91;94.56
63325;SHT31;49451;52.390;13.028;2022-12-07T07:22:41;3.83;94.51
63325;SHT31;49451;52.390;13.028;2022-12-07T07:25:07;3.85;94.95
63325;SHT31;49451;52.390;13.028;2022-12-07T07:27:32;3.99;94.32
63325;SHT31;49451;52.390;13.028;2022-12-07T07:29:58;3.85;94.02
63325;SHT31;49451;52.390;13.028;2022-12-07T07:32:23;3.83;94.48
63325;SHT31;49451;52.390;13.028;2022-12-07T07:34:48;3.89;94.05
63325;SHT31;49451;52.390;13.028;2022-12-07T07:37:14;3.85;94.20
63325;SHT31;49451;52.390;13.028;2022-12-07T07:39:39;3.93;94.00
63325;SHT31;49451;52.390;13.028;2022-12-07T07:42:05;3.89;93.98
63325;SHT31;49451;52.390;13.028;2022-12-07T07:44:32;3.98;93.64
63325;SHT31;49451;52.390;13.028;2022-12-07T07:46:58;4.02;93.95
63325;SHT31;49451;52.390;13.028;2022-12-07T07:49:23;3.89;93.91
63325;SHT31;49451;52.390;13.028;2022-12-07T07:51:48;3.85;94.38
63325;SHT31;49451;52.390;13.028;2022-12-07T07:54:14;3.95;94.18
63325;SHT31;49451;52.390;13.028;2022-12-07T07:56:39;3.99;93.89
63325;SHT31;49451;52.390;13.028;2022-12-07T07:59:04;3.96;93.76
63325;SHT31;49451;52.390;13.028;2022-12-07T08:01:30;4.06;93.70
63325;SHT31;49451;52.390;13.028;2022-12-07T08:03:55;4.09;93.39
63325;SHT31;49451;52.390;13.028;2022-12-07T08:06:20;4.12;93.49
63325;SHT31;49451;52.390;13.028;2022-12-07T08:08:46;4.06;93.39
63325;SHT31;49451;52.390;13.028;2022-12-07T08:11:11;4.06;92.88
63325;SHT31;49451;52.390;13.028;2022-12-07T08:13:37;4.16;92.75
63325;SHT31;49451;52.390;13.028;2022-12-07T08:16:07;4.19;92.09
63325;SHT31;49451;52.390;13.028;2022-12-07T08:18:40;4.10;91.84
63325;SHT31;49451;52.390;13.028;2022-12-07T08:21:07;4.10;91.30
63325;SHT31;49451;52.390;13.028;2022-12-07T08:23:34;4.05;89.89
63325;SHT31;49451;52.390;13.028;2022-12-07T08:26:01;4.07;89.49
63325;SHT31;49451;52.390;13.028;2022-12-07T08:28:28;4.03;90.05
63325;SHT31;49451;52.390;13.028;2022-12-07T08:31:02;4.12;88.81
63325;SHT31;49451;52.390;13.028;2022-12-07T08:33:27;4.06;87.73
63325;SHT31;49451;52.390;13.028;2022-12-07T08:35:53;4.14;87.49
63325;SHT31;49451;52.390;13.028;2022-12-07T08:38:18;4.14;87.52
63325;SHT31;49451;52.390;13.028;2022-12-07T08:40:43;4.19;87.52
63325;SHT31;49451;52.390;13.028;2022-12-07T08:43:09;4.16;87.44
63325;SHT31;49451;52.390;13.028;2022-12-07T08:45:34;4.27;87.39
63325;SHT31;49451;52.390;13.028;2022-12-07T08:48:10;4.24;87.27
63325;SHT31;49451;52.390;13.028;2022-12-07T08:50:37;4.29;87.20
63325;SHT31;49451;52.390;13.028;2022-12-07T08:53:04;4.53;86.95
63325;SHT31;49451;52.390;13.028;2022-12-07T08:55:30;4.47;86.79
63325;SHT31;49451;52.390;13.028;2022-12-07T08:57:58;4.57;86.73
63325;SHT31;49451;52.390;13.028;2022-12-07T09:00:24;4.41;86.81
63325;SHT31;49451;52.390;13.028;2022-12-07T09:02:51;4.34;86.91
63325;SHT31;49451;52.390;13.028;2022-12-07T09:05:16;4.47;86.60
63325;SHT31;49451;52.390;13.028;2022-12-07T09:07:43;4.34;86.38
63325;SHT31;49451;52.390;13.028;2022-12-07T09:10:11;4.36;86.74
63325;SHT31;49451;52.390;13.028;2022-12-07T09:12:37;4.47;87.00
63325;SHT31;49451;52.390;13.028;2022-12-07T09:15:02;4.67;86.13
63325;SHT31;49451;52.390;13.028;2022-12-07T09:17:32;4.53;86.35
63325;SHT31;49451;52.390;13.028;2022-12-07T09:19:57;4.56;86.90
63325;SHT31;49451;52.390;13.028;2022-12-07T09:22:23;4.61;86.26
63325;SHT31;49451;52.390;13.028;2022-12-07T09:24:48;4.71;86.25
63325;SHT31;49451;52.390;13.028;2022-12-07T09:27:14;4.54;86.31
63325;SHT31;49451;52.390;13.028;2022-12-07T09:29:40;4.32;86.62
63325;SHT31;49451;52.390;13.028;2022-12-07T09:32:07;4.54;85.89
63325;SHT31;49451;52.390;13.028;2022-12-07T09:34:33;4.57;85.77
63325;SHT31;49451;52.390;13.028;2022-12-07T09:37:01;4.64;85.27
63325;SHT31;49451;52.390;13.028;2022-12-07T09:39:30;4.43;85.67
63325;SHT31;49451;52.390;13.028;2022-12-07T09:41:57;4.37;86.25
63325;SHT31;49451;52.390;13.028;2022-12-07T09:44:26;4.51;86.47
63325;SHT31;49451;52.390;13.028;2022-12-07T09:46:52;4.36;85.80
63325;SHT31;49451;52.390;13.028;2022-12-07T09:49:23;4.48;85.77
63325;SHT31;49451;52.390;13.028;2022-12-07T09:54:36;4.27;86.41
63325;SHT31;49451;52.390;13.028;2022-12-07T09:57:04;4.33;86.46
63325;SHT31;49451;52.390;13.028;2022-12-07T09:59:29;4.16;86.88
63325;SHT31;49451;52.390;13.028;2022-12-07T10:01:55;4.30;86.84
63325;SHT31;49451;52.390;13.028;2022-12-07T10:04:26;4.34;86.40
63325;SHT31;49451;52.390;13.028;2022-12-07T10:06:53;4.41;86.25
63325;SHT31;49451;52.390;13.028;2022-12-07T10:09:20;4.38;86.17
63325;SHT31;49451;52.390;13.028;2022-12-07T10:12:04;4.44;86.04
63325;SHT31;49451;52.390;13.028;2022-12-07T10:14:32;4.48;85.91
63325;SHT31;49451;52.390;13.028;2022-12-07T10:19:47;4.64;85.44
63325;SHT31;49451;52.390;13.028;2022-12-07T10:22:17;4.34;86.04
63325;SHT31;49451;52.390;13.028;2022-12-07T10:24:45;4.41;86.38
63325;SHT31;49451;52.390;13.028;2022-12-07T10:29:50;5.22;84.33
63325;SHT31;49451;52.390;13.028;2022-12-07T10:34:42;5.44;82.59
63325;SHT31;49451;52.390;13.028;2022-12-07T10:42:21;5.58;82.52
63325;SHT31;49451;52.390;13.028;2022-12-07T10:44:47;5.48;82.61
63325;SHT31;49451;52.390;13.028;2022-12-07T10:50:18;5.51;82.12
63325;SHT31;49451;52.390;13.028;2022-12-07T10:56:00;4.89;84.31
63325;SHT31;49451;52.390;13.028;2022-12-07T11:04:18;4.86;85.27
63325;SHT31;49451;52.390;13.028;2022-12-07T11:06:58;4.86;85.94
63325;SHT31;49451;52.390;13.028;2022-12-07T11:09:57;4.89;85.65
63325;SHT31;49451;52.390;13.028;2022-12-07T11:15:26;4.93;85.98
63325;SHT31;49451;52.390;13.028;2022-12-07T11:18:03;4.88;86.49
63325;SHT31;49451;52.390;13.028;2022-12-07T11:20:55;4.78;86.08
63325;SHT31;49451;52.390;13.028;2022-12-07T11:23:49;5.09;86.03
63325;SHT31;49451;52.390;13.028;2022-12-07T11:29:24;5.02;85.52
63325;SHT31;49451;52.390;13.028;2022-12-07T11:34:46;5.09;85.21
63325;SHT31;49451;52.390;13.028;2022-12-07T11:37:18;5.11;84.79
63325;SHT31;49451;52.390;13.028;2022-12-07T11:40:35;5.19;84.82
63325;SHT31;49451;52.390;13.028;2022-12-07T11:42:40;5.26;84.57
63325;SHT31;49451;52.390;13.028;2022-12-07T11:47:40;5.32;84.20
63325;SHT31;49451;52.390;13.028;2022-12-07T11:50:36;5.12;84.75
63325;SHT31;49451;52.390;13.028;2022-12-07T11:53:14;5.26;84.00
63325;SHT31;49451;52.390;13.028;2022-12-07T11:55:57;5.43;83.82
63325;SHT31;49451;52.390;13.028;2022-12-07T12:03:50;5.91;82.54
63325;SHT31;49451;52.390;13.028;2022-12-07T12:06:16;6.71;79.87
63325;SHT31;49451;52.390;13.028;2022-12-07T12:14:46;5.98;81.41
63325;SHT31;49451;52.390;13.028;2022-12-07T12:25:49;5.71;81.97
63325;SHT31;49451;52.390;13.028;2022-12-07T12:31:11;5.64;82.27
63325;SHT31;49451;52.390;13.028;2022-12-07T12:33:43;5.55;82.53
63325;SHT31;49451;52.390;13.028;2022-12-07T12:46:48;5.65;82.61
63325;SHT31;49451;52.390;13.028;2022-12-07T12:52:00;5.57;83.12
63325;SHT31;49451;52.390;13.028;2022-12-07T12:54:32;5.41;83.44
63325;SHT31;49451;52.390;13.028;2022-12-07T12:56:59;5.40;83.82
63325;SHT31;49451;52.390;13.028;2022-12-07T12:59:38;5.24;84.58
63325;SHT31;49451;52.390;13.028;2022-12-07T13:04:55;5.26;84.39
63325;SHT31;49451;52.390;13.028;2022-12-07T13:23:39;5.22;84.47
63325;SHT31;49451;52.390;13.028;2022-12-07T13:26:38;5.32;84.29
63325;SHT31;49451;52.390;13.028;2022-12-07T13:31:43;5.20;84.01
63325;SHT31;49451;52.390;13.028;2022-12-07T13:34:35;5.29;84.23
63325;SHT31;49451;52.390;13.028;2022-12-07T13:37:24;5.22;83.98
63325;SHT31;49451;52.390;13.028;2022-12-07T13:40:17;5.18;84.29
63325;SHT31;49451;52.390;13.028;2022-12-07T13:42:40;5.22;84.38
63325;SHT31;49451;52.390;13.028;2022-12-07T13:45:24;5.13;84.56
63325;SHT31;49451;52.390;13.028;2022-12-07T13:50:56;5.19;84.57
63325;SHT31;49451;52.390;13.028;2022-12-07T13:53:22;5.16;84.92
63325;SHT31;49451;52.390;13.028;2022-12-07T13:55:47;5.02;85.16
63325;SHT31;49451;52.390;13.028;2022-12-07T13:58:13;4.88;86.05
63325;SHT31;49451;52.390;13.028;2022-12-07T14:00:40;4.96;85.32
63325;SHT31;49451;52.390;13.028;2022-12-07T14:05:38;4.82;85.91
63325;SHT31;49451;52.390;13.028;2022-12-07T14:08:20;4.96;85.57
63325;SHT31;49451;52.390;13.028;2022-12-07T14:13:31;4.79;85.58
63325;SHT31;49451;52.390;13.028;2022-12-07T14:15:59;4.89;85.44
63325;SHT31;49451;52.390;13.028;2022-12-07T14:18:31;4.82;86.25
63325;SHT31;49451;52.390;13.028;2022-12-07T14:23:30;4.69;85.58
63325;SHT31;49451;52.390;13.028;2022-12-07T14:26:12;4.61;86.49
63325;SHT31;49451;52.390;13.028;2022-12-07T14:28:39;4.65;86.07
63325;SHT31;49451;52.390;13.028;2022-12-07T14:31:11;4.54;86.60
63325;SHT31;49451;52.390;13.028;2022-12-07T14:33:38;4.47;86.48
63325;SHT31;49451;52.390;13.028;2022-12-07T14:36:04;4.33;87.07
63325;SHT31;49451;52.390;13.028;2022-12-07T14:38:29;4.23;87.10
63325;SHT31;49451;52.390;13.028;2022-12-07T14:40:55;4.36;86.88
63325;SHT31;49451;52.390;13.028;2022-12-07T14:43:41;4.41;86.51
63325;SHT31;49451;52.390;13.028;2022-12-07T14:46:06;4.33;86.67
63325;SHT31;49451;52.390;13.028;2022-12-07T14:48:32;4.21;87.01
63325;SHT31;49451;52.390;13.028;2022-12-07T14:50:57;4.17;87.26
63325;SHT31;49451;52.390;13.028;2022-12-07T14:53:37;4.19;86.93
63325;SHT31;49451;52.390;13.028;2022-12-07T14:56:04;4.24;87.26
63325;SHT31;49451;52.390;13.028;2022-12-07T14:58:33;4.03;87.92
63325;SHT31;49451;52.390;13.028;2022-12-07T15:00:59;3.93;88.28
63325;SHT31;49451;52.390;13.028;2022-12-07T15:03:25;3.95;88.18
63325;SHT31;49451;52.390;13.028;2022-12-07T15:05:50;4.06;88.05
63325;SHT31;49451;52.390;13.028;2022-12-07T15:08:16;3.93;88.16
63325;SHT31;49451;52.390;13.028;2022-12-07T15:10:42;3.98;88.24
63325;SHT31;49451;52.390;13.028;2022-12-07T15:13:07;3.77;88.63
63325;SHT31;49451;52.390;13.028;2022-12-07T15:15:53;3.85;88.45
63325;SHT31;49451;52.390;13.028;2022-12-07T15:18:19;3.81;88.59
63325;SHT31;49451;52.390;13.028;2022-12-07T15:20:46;3.78;88.98
63325;SHT31;49451;52.390;13.028;2022-12-07T15:23:12;3.81;88.66
63325;SHT31;49451;52.390;13.028;2022-12-07T15:25:44;3.75;88.97
63325;SHT31;49451;52.390;13.028;2022-12-07T15:28:10;3.71;88.99
63325;SHT31;49451;52.390;13.028;2022-12-07T15:30:39;3.79;88.72
63325;SHT31;49451;52.390;13.028;2022-12-07T15:33:05;3.61;89.24
63325;SHT31;49451;52.390;13.028;2022-12-07T15:35:31;3.68;88.96
63325;SHT31;49451;52.390;13.028;2022-12-07T15:37:56;3.55;89.10
63325;SHT31;49451;52.390;13.028;2022-12-07T15:40:21;3.51;89.46
63325;SHT31;49451;52.390;13.028;2022-12-07T15:42:47;3.47;89.68
63325;SHT31;49451;52.390;13.028;2022-12-07T15:45:12;3.37;89.88
63325;SHT31;49451;52.390;13.028;2022-12-07T15:47:43;3.54;89.61
63325;SHT31;49451;52.390;13.028;2022-12-07T15:50:14;3.41;89.55
63325;SHT31;49451;52.390;13.028;2022-12-07T15:52:40;3.50;89.39
63325;SHT31;49451;52.390;13.028;2022-12-07T15:55:06;3.53;89.14
63325;SHT31;49451;52.390;13.028;2022-12-07T15:57:33;3.54;89.21
63325;SHT31;49451;52.390;13.028;2022-12-07T16:00:00;3.60;89.36
63325;SHT31;49451;52.390;13.028;2022-12-07T16:02:31;3.57;89.32
63325;SHT31;49451;52.390;13.028;2022-12-07T16:05:00;3.48;89.30
63325;SHT31;49451;52.390;13.028;2022-12-07T16:07:27;3.45;89.37
63325;SHT31;49451;52.390;13.028;2022-12-07T16:10:23;3.53;89.27
63325;SHT31;49451;52.390;13.028;2022-12-07T16:12:56;3.38;89.59
63325;SHT31;49451;52.390;13.028;2022-12-07T16:15:25;3.34;89.56
63325;SHT31;49451;52.390;13.028;2022-12-07T16:18:22;3.31;89.55
63325;SHT31;49451;52.390;13.028;2022-12-07T16:20:48;3.27;90.16
63325;SHT31;49451;52.390;13.028;2022-12-07T16:23:14;3.38;89.79
63325;SHT31;49451;52.390;13.028;2022-12-07T16:25:40;3.37;89.48
63325;SHT31;49451;52.390;13.028;2022-12-07T16:28:06;3.27;89.55
63325;SHT31;49451;52.390;13.028;2022-12-07T16:30:34;3.27;89.47
63325;SHT31;49451;52.390;13.028;2022-12-07T16:32:59;3.30;89.93
63325;SHT31;49451;52.390;13.028;2022-12-07T16:35:25;3.38;89.04
63325;SHT31;49451;52.390;13.028;2022-12-07T16:38:02;3.30;89.36
63325;SHT31;49451;52.390;13.028;2022-12-07T16:40:28;3.19;89.70
63325;SHT31;49451;52.390;13.028;2022-12-07T16:42:56;3.24;89.64
63325;SHT31;49451;52.390;13.028;2022-12-07T16:45:24;3.15;89.74
63325;SHT31;49451;52.390;13.028;2022-12-07T16:47:49;3.03;90.13
63325;SHT31;49451;52.390;13.028;2022-12-07T16:50:15;3.20;89.73
63325;SHT31;49451;52.390;13.028;2022-12-07T16:52:56;3.26;89.32
63325;SHT31;49451;52.390;13.028;2022-12-07T16:55:21;3.15;90.03
63325;SHT31;49451;52.390;13.028;2022-12-07T16:57:47;3.20;89.64
63325;SHT31;49451;52.390;13.028;2022-12-07T17:00:15;3.20;89.46
63325;SHT31;49451;52.390;13.028;2022-12-07T17:02:41;3.24;89.28
63325;SHT31;49451;52.390;13.028;2022-12-07T17:05:07;3.22;89.22
63325;SHT31;49451;52.390;13.028;2022-12-07T17:07:53;3.10;89.37
63325;SHT31;49451;52.390;13.028;2022-12-07T17:10:19;3.07;89.64
63325;SHT31;49451;52.390;13.028;2022-12-07T17:12:51;3.09;89.90
63325;SHT31;49451;52.390;13.028;2022-12-07T17:15:18;3.19;89.89
63325;SHT31;49451;52.390;13.028;2022-12-07T17:18:01;3.05;89.94
63325;SHT31;49451;52.390;13.028;2022-12-07T17:20:26;3.07;90.20
63325;SHT31;49451;52.390;13.028;2022-12-07T17:22:52;3.00;90.33
63325;SHT31;49451;52.390;13.028;2022-12-07T17:25:21;2.96;90.31
63325;SHT31;49451;52.390;13.028;2022-12-07T17:27:56;3.12;89.86
63325;SHT31;49451;52.390;13.028;2022-12-07T17:30:24;3.06;89.93
63325;SHT31;49451;52.390;13.028;2022-12-07T17:32:51;3.05;89.86
63325;SHT31;49451;52.390;13.028;2022-12-07T17:35:16;2.91;90.75
63325;SHT31;49451;52.390;13.028;2022-12-07T17:37:51;2.96;90.58
63325;SHT31;49451;52.390;13.028;2022-12-07T17:40:22;3.02;90.43
63325;SHT31;49451;52.390;13.028;2022-12-07T17:42:47;2.98;90.28
63325;SHT31;49451;52.390;13.028;2022-12-07T17:45:16;2.95;90.94
63325;SHT31;49451;52.390;13.028;2022-12-07T17:47:42;2.96;90.66
63325;SHT31;49451;52.390;13.028;2022-12-07T17:50:08;2.92;90.90
63325;SHT31;49451;52.390;13.028;2022-12-07T17:52:38;2.96;90.52
63325;SHT31;49451;52.390;13.028;2022-12-07T17:55:22;2.95;90.68
63325;SHT31;49451;52.390;13.028;2022-12-07T17:57:48;2.86;90.66
63325;SHT31;49451;52.390;13.028;2022-12-07T18:00:14;2.86;90.40
63325;SHT31;49451;52.390;13.028;2022-12-07T18:02:39;2.89;90.93
63325;SHT31;49451;52.390;13.028;2022-12-07T18:05:05;2.89;90.89
63325;SHT31;49451;52.390;13.028;2022-12-07T18:07:31;2.85;90.47
63325;SHT31;49451;52.390;13.028;2022-12-07T18:09:56;2.77;91.00
63325;SHT31;49451;52.390;13.028;2022-12-07T18:12:22;2.66;91.36
63325;SHT31;49451;52.390;13.028;2022-12-07T18:14:47;2.57;91.35
63325;SHT31;49451;52.390;13.028;2022-12-07T18:17:15;2.68;91.35
63325;SHT31;49451;52.390;13.028;2022-12-07T18:19:40;2.64;91.46
63325;SHT31;49451;52.390;13.028;2022-12-07T18:22:05;2.75;91.22
63325;SHT31;49451;52.390;13.028;2022-12-07T18:24:31;2.65;91.25
63325;SHT31;49451;52.390;13.028;2022-12-07T18:26:56;2.55;91.77
63325;SHT31;49451;52.390;13.028;2022-12-07T18:29:22;2.50;92.18
63325;SHT31;49451;52.390;13.028;2022-12-07T18:31:47;2.55;91.67
63325;SHT31;49451;52.390;13.028;2022-12-07T18:34:15;2.58;91.75
63325;SHT31;49451;52.390;13.028;2022-12-07T18:36:43;2.55;91.91
63325;SHT31;49451;52.390;13.028;2022-12-07T18:39:12;2.52;91.74
63325;SHT31;49451;52.390;13.028;2022-12-07T18:41:38;2.41;92.28
63325;SHT31;49451;52.390;13.028;2022-12-07T18:44:05;2.40;92.46
63325;SHT31;49451;52.390;13.028;2022-12-07T18:46:31;2.51;92.36
63325;SHT31;49451;52.390;13.028;2022-12-07T18:48:57;2.41;92.53
63325;SHT31;49451;52.390;13.028;2022-12-07T18:51:22;2.42;92.04
63325;SHT31;49451;52.390;13.028;2022-12-07T18:53:48;2.55;92.03
63325;SHT31;49451;52.390;13.028;2022-12-07T18:56:19;2.55;91.57
63325;SHT31;49451;52.390;13.028;2022-12-07T18:58:55;2.51;91.95
63325;SHT31;49451;52.390;13.028;2022-12-07T19:01:40;2.40;92.17
63325;SHT31;49451;52.390;13.028;2022-12-07T19:04:06;2.42;92.20
63325;SHT31;49451;52.390;13.028;2022-12-07T19:06:32;2.40;92.25
63325;SHT31;49451;52.390;13.028;2022-12-07T19:08:57;2.44;91.88
63325;SHT31;49451;52.390;13.028;2022-12-07T19:11:30;2.48;91.58
63325;SHT31;49451;52.390;13.028;2022-12-07T19:14:26;2.45;92.13
63325;SHT31;49451;52.390;13.028;2022-12-07T19:16:57;2.38;92.32
63325;SHT31;49451;52.390;13.028;2022-12-07T19:19:28;2.41;92.32
63325;SHT31;49451;52.390;13.028;2022-12-07T19:21:54;2.38;92.13
63325;SHT31;49451;52.390;13.028;2022-12-07T19:24:20;2.33;91.99
63325;SHT31;49451;52.390;13.028;2022-12-07T19:26:45;2.40;91.93
63325;SHT31;49451;52.390;13.028;2022-12-07T19:29:10;2.36;92.23
63325;SHT31;49451;52.390;13.028;2022-12-07T19:31:36;2.30;92.27
63325;SHT31;49451;52.390;13.028;2022-12-07T19:34:06;2.41;92.02
63325;SHT31;49451;52.390;13.028;2022-12-07T19:36:31;2.37;92.10
63325;SHT31;49451;52.390;13.028;2022-12-07T19:38:57;2.36;91.97
63325;SHT31;49451;52.390;13.028;2022-12-07T19:41:22;2.38;92.27
63325;SHT31;49451;52.390;13.028;2022-12-07T19:46:35;2.41;91.96
63325;SHT31;49451;52.390;13.028;2022-12-07T19:49:01;2.30;92.42
63325;SHT31;49451;52.390;13.028;2022-12-07T19:51:27;2.37;92.26
63325;SHT31;49451;52.390;13.028;2022-12-07T19:53:55;2.40;92.13
63325;SHT31;49451;52.390;13.028;2022-12-07T19:56:21;2.34;92.24
63325;SHT31;49451;52.390;13.028;2022-12-07T19:58:47;2.31;92.29
63325;SHT31;49451;52.390;13.028;2022-12-07T20:01:13;2.22;92.71
63325;SHT31;49451;52.390;13.028;2022-12-07T20:03:39;2.22;92.64
63325;SHT31;49451;52.390;13.028;2022-12-07T20:06:09;2.24;92.50
63325;SHT31;49451;52.390;13.028;2022-12-07T20:08:35;2.26;92.18
63325;SHT31;49451;52.390;13.028;2022-12-07T20:11:00;2.13;92.47
63325;SHT31;49451;52.390;13.028;2022-12-07T20:13:45;2.27;92.25
63325;SHT31;49451;52.390;13.028;2022-12-07T20:16:11;2.26;92.15
63325;SHT31;49451;52.390;13.028;2022-12-07T20:18:36;2.19;92.01
63325;SHT31;49451;52.390;13.028;2022-12-07T20:21:01;2.14;92.49
63325;SHT31;49451;52.390;13.028;2022-12-07T20:23:28;2.06;92.55
63325;SHT31;49451;52.390;13.028;2022-12-07T20:25:53;2.14;92.38
63325;SHT31;49451;52.390;13.028;2022-12-07T20:28:19;2.13;92.24
63325;SHT31;49451;52.390;13.028;2022-12-07T20:30:48;2.07;92.37
63325;SHT31;49451;52.390;13.028;2022-12-07T20:33:14;1.96;92.60
63325;SHT31;49451;52.390;13.028;2022-12-07T20:35:39;1.98;92.75
63325;SHT31;49451;52.390;13.028;2022-12-07T20:38:05;2.01;92.66
63325;SHT31;49451;52.390;13.028;2022-12-07T20:40:30;1.96;92.43
63325;SHT31;49451;52.390;13.028;2022-12-07T20:42:56;2.09;92.15
63325;SHT31;49451;52.390;13.028;2022-12-07T20:45:21;1.99;92.38
63325;SHT31;49451;52.390;13.028;2022-12-07T20:47:47;2.02;92.42
63325;SHT31;49451;52.390;13.028;2022-12-07T20:50:12;1.82;93.18
63325;SHT31;49451;52.390;13.028;2022-12-07T20:52:38;1.85;92.57
63325;SHT31;49451;52.390;13.028;2022-12-07T20:55:04;1.86;92.55
63325;SHT31;49451;52.390;13.028;2022-12-07T20:57:29;1.71;93.08
63325;SHT31;49451;52.390;13.028;2022-12-07T20:59:55;1.87;92.58
63325;SHT31;49451;52.390;13.028;2022-12-07T21:02:20;1.83;92.46
63325;SHT31;49451;52.390;13.028;2022-12-07T21:04:46;1.65;93.14
63325;SHT31;49451;52.390;13.028;2022-12-07T21:07:11;1.69;93.07
63325;SHT31;49451;52.390;13.028;2022-12-07T21:09:37;1.76;92.82
63325;SHT31;49451;52.390;13.028;2022-12-07T21:12:02;1.66;92.53
63325;SHT31;49451;52.390;13.028;2022-12-07T21:14:28;1.58;93.21
63325;SHT31;49451;52.390;13.028;2022-12-07T21:16:53;1.52;93.30
63325;SHT31;49451;52.390;13.028;2022-12-07T21:19:18;1.64;93.00
63325;SHT31;49451;52.390;13.028;2022-12-07T21:21:44;1.66;92.59
63325;SHT31;49451;52.390;13.028;2022-12-07T21:24:09;1.59;92.74
63325;SHT31;49451;52.390;13.028;2022-12-07T21:26:36;1.48;92.82
63325;SHT31;49451;52.390;13.028;2022-12-07T21:29:04;1.62;92.81